createdAt,value
2019-01-30T00:00:32.972Z,91.80
2019-01-30T00:01:36.793Z,91.60
2019-01-30T00:02:40.814Z,91.50
2019-01-30T00:03:44.755Z,91.00
2019-01-30T00:04:48.622Z,90.50
2019-01-30T00:05:52.751Z,90.50
2019-01-30T00:06:57.130Z,90.70
2019-01-30T00:08:01.133Z,91.50
2019-01-30T00:09:08.652Z,90.60
2019-01-30T00:10:12.807Z,90.70
2019-01-30T00:11:16.844Z,90.60
2019-01-30T00:12:20.734Z,91.20
2019-01-30T00:13:24.655Z,91.20
2019-01-30T00:14:28.731Z,91.60
2019-01-30T00:15:32.989Z,91.60
2019-01-30T00:16:37.394Z,91.30
2019-01-30T00:17:41.500Z,91.20
2019-01-30T00:18:45.623Z,90.50
2019-01-30T00:19:49.752Z,89.50
2019-01-30T00:20:53.795Z,90.70
2019-01-30T00:21:57.821Z,90.50
2019-01-30T00:23:01.719Z,91.00
2019-01-30T00:24:05.537Z,90.10
2019-01-30T00:25:09.590Z,90.80
2019-01-30T00:26:13.705Z,90.90
2019-01-30T00:27:17.804Z,90.50
2019-01-30T00:28:21.791Z,90.50
2019-01-30T00:29:25.654Z,91.60
2019-01-30T00:30:29.695Z,91.60
2019-01-30T00:31:33.543Z,90.50
2019-01-30T00:32:37.434Z,90.20
2019-01-30T00:33:41.441Z,90.60
2019-01-30T00:34:45.345Z,90.30
2019-01-30T00:35:49.378Z,88.90
2019-01-30T00:36:53.520Z,90.30
2019-01-30T00:37:58.617Z,90.10
2019-01-30T00:39:03.437Z,90.20
2019-01-30T00:40:08.247Z,90.20
2019-01-30T00:41:12.306Z,88.70
2019-01-30T00:42:16.311Z,90.30
2019-01-30T00:43:20.222Z,92.00
2019-01-30T00:44:24.184Z,91.90
2019-01-30T00:45:28.086Z,90.40
2019-01-30T00:46:32.005Z,89.70
2019-01-30T00:47:36.106Z,89.10
2019-01-30T00:48:40.223Z,88.30
2019-01-30T00:49:44.195Z,89.00
2019-01-30T00:50:48.085Z,89.00
2019-01-30T00:51:52.204Z,88.30
2019-01-30T00:52:56.221Z,88.80
2019-01-30T00:54:00.021Z,90.00
2019-01-30T00:55:04.182Z,87.80
2019-01-30T00:56:08.096Z,90.00
2019-01-30T00:57:12.103Z,90.80
2019-01-30T00:58:16.156Z,90.10
2019-01-30T00:59:20.066Z,88.80
2019-01-30T01:00:24.189Z,87.50
2019-01-30T01:01:28.236Z,89.00
2019-01-30T01:02:32.121Z,90.40
2019-01-30T01:03:36.285Z,90.80
2019-01-30T01:04:40.256Z,90.80
2019-01-30T01:05:44.395Z,88.20
2019-01-30T01:06:48.399Z,90.00
2019-01-30T01:07:52.451Z,88.70
2019-01-30T01:08:56.509Z,88.00
2019-01-30T01:10:07.703Z,88.40
2019-01-30T01:11:11.677Z,89.00
2019-01-30T01:12:15.785Z,89.00
2019-01-30T01:13:19.916Z,88.30
2019-01-30T01:14:23.823Z,86.60
2019-01-30T01:15:27.907Z,89.70
2019-01-30T01:16:32.017Z,88.50
2019-01-30T01:17:35.895Z,89.20
2019-01-30T01:18:39.893Z,89.50
2019-01-30T01:19:44.068Z,88.60
2019-01-30T01:20:48.090Z,88.10
2019-01-30T01:21:52.103Z,87.80
2019-01-30T01:22:55.997Z,89.80
2019-01-30T01:24:00.165Z,89.10
2019-01-30T01:25:04.909Z,86.70
2019-01-30T01:26:09.068Z,88.40
2019-01-30T01:27:13.155Z,88.60
2019-01-30T01:28:17.214Z,87.90
2019-01-30T01:29:21.103Z,87.70
2019-01-30T01:30:26.659Z,86.90
2019-01-30T01:31:30.611Z,86.60
2019-01-30T01:32:34.623Z,86.70
2019-01-30T01:33:38.523Z,89.20
2019-01-30T01:34:42.547Z,88.20
2019-01-30T01:35:46.319Z,86.80
2019-01-30T01:36:50.422Z,85.80
2019-01-30T01:37:54.371Z,86.30
2019-01-30T01:38:58.463Z,87.00
2019-01-30T01:40:02.539Z,89.40
2019-01-30T01:41:08.658Z,88.70
2019-01-30T01:42:12.648Z,88.10
2019-01-30T01:43:16.591Z,86.70
2019-01-30T01:44:20.622Z,89.10
2019-01-30T01:45:24.737Z,89.20
2019-01-30T01:46:28.757Z,87.90
2019-01-30T01:47:32.689Z,86.60
2019-01-30T01:48:36.659Z,89.40
2019-01-30T01:49:40.603Z,87.60
2019-01-30T01:50:44.777Z,86.00
2019-01-30T01:51:48.881Z,87.50
2019-01-30T01:52:52.981Z,88.00
2019-01-30T01:53:56.899Z,87.90
2019-01-30T01:55:00.952Z,87.80
2019-01-30T01:56:04.889Z,88.20
2019-01-30T01:57:08.883Z,88.70
2019-01-30T01:58:12.768Z,88.90
2019-01-30T01:59:16.679Z,88.50
2019-01-30T02:00:21.624Z,89.60
2019-01-30T02:01:25.769Z,87.50
2019-01-30T02:02:29.654Z,86.10
2019-01-30T02:03:33.671Z,86.80
2019-01-30T02:04:37.693Z,86.10
2019-01-30T02:05:41.701Z,86.70
2019-01-30T02:06:45.871Z,85.70
2019-01-30T02:07:50.867Z,86.10
2019-01-30T02:08:54.851Z,87.40
2019-01-30T02:09:58.856Z,86.50
2019-01-30T02:11:02.876Z,86.80
2019-01-30T02:12:06.957Z,85.80
2019-01-30T02:13:11.009Z,85.20
2019-01-30T02:14:15.121Z,85.80
2019-01-30T02:15:21.034Z,85.70
2019-01-30T02:16:25.035Z,87.80
2019-01-30T02:17:29.029Z,86.50
2019-01-30T02:18:33.057Z,86.40
2019-01-30T02:19:37.043Z,86.70
2019-01-30T02:20:41.027Z,86.30
2019-01-30T02:21:44.986Z,87.30
2019-01-30T02:22:48.945Z,87.10
2019-01-30T02:23:53.072Z,85.80
2019-01-30T02:24:57.087Z,85.80
2019-01-30T02:26:01.165Z,86.50
2019-01-30T02:27:05.283Z,85.80
2019-01-30T02:28:09.327Z,86.60
2019-01-30T02:29:13.178Z,84.40
2019-01-30T02:30:22.301Z,85.40
2019-01-30T02:31:26.483Z,84.50
2019-01-30T02:32:30.484Z,85.50
2019-01-30T02:33:34.459Z,83.90
2019-01-30T02:34:38.422Z,83.90
2019-01-30T02:35:42.239Z,83.00
2019-01-30T02:36:59.089Z,84.30
2019-01-30T02:38:03.097Z,88.00
2019-01-30T02:39:07.807Z,88.00
2019-01-30T02:40:13.492Z,85.40
2019-01-30T02:41:17.644Z,84.40
2019-01-30T02:42:22.047Z,83.70
2019-01-30T02:43:25.811Z,86.20
2019-01-30T02:44:30.132Z,86.70
2019-01-30T02:45:33.933Z,86.70
2019-01-30T02:46:37.871Z,85.30
2019-01-30T02:47:42.287Z,83.20
2019-01-30T02:48:46.254Z,82.70
2019-01-30T02:49:50.347Z,83.20
2019-01-30T02:50:54.343Z,83.80
2019-01-30T02:51:58.253Z,86.00
2019-01-30T02:53:02.276Z,86.40
2019-01-30T02:54:06.324Z,87.40
2019-01-30T02:55:11.576Z,85.60
2019-01-30T02:56:15.676Z,84.50
2019-01-30T02:57:19.699Z,84.10
2019-01-30T02:58:23.703Z,84.60
2019-01-30T02:59:27.621Z,84.20
2019-01-30T03:00:32.632Z,85.10
2019-01-30T03:01:46.853Z,84.40
2019-01-30T03:02:50.794Z,83.70
2019-01-30T03:03:54.799Z,84.10
2019-01-30T03:04:58.577Z,83.40
2019-01-30T03:06:02.673Z,84.00
2019-01-30T03:07:06.682Z,84.40
2019-01-30T03:08:10.703Z,83.00
2019-01-30T03:09:14.793Z,83.20
2019-01-30T03:10:19.269Z,83.40
2019-01-30T03:11:23.301Z,83.60
2019-01-30T03:12:27.335Z,83.00
2019-01-30T03:13:31.336Z,84.10
2019-01-30T03:14:35.425Z,85.00
2019-01-30T03:15:39.536Z,84.40
2019-01-30T03:16:43.449Z,85.40
2019-01-30T03:17:47.356Z,82.90
2019-01-30T03:18:51.460Z,83.50
2019-01-30T03:19:55.453Z,83.20
2019-01-30T03:20:59.240Z,85.00
2019-01-30T03:22:03.256Z,83.20
2019-01-30T03:23:07.343Z,82.00
2019-01-30T03:24:11.391Z,83.00
2019-01-30T03:25:15.664Z,83.10
2019-01-30T03:26:19.461Z,83.40
2019-01-30T03:27:23.467Z,85.40
2019-01-30T03:28:27.451Z,85.00
2019-01-30T03:29:31.389Z,83.90
2019-01-30T03:30:35.286Z,84.20
2019-01-30T03:31:39.399Z,84.50
2019-01-30T03:32:43.217Z,83.30
2019-01-30T03:33:47.407Z,83.40
2019-01-30T03:34:51.553Z,85.20
2019-01-30T03:35:55.547Z,82.20
2019-01-30T03:36:59.345Z,84.00
2019-01-30T03:38:03.123Z,81.70
2019-01-30T03:39:08.244Z,79.70
2019-01-30T03:40:14.321Z,82.40
2019-01-30T03:41:18.399Z,82.50
2019-01-30T03:42:22.529Z,81.10
2019-01-30T03:43:26.427Z,82.40
2019-01-30T03:44:30.679Z,81.80
2019-01-30T03:45:34.705Z,82.10
2019-01-30T03:46:38.831Z,82.90
2019-01-30T03:47:42.833Z,84.00
2019-01-30T03:48:46.969Z,82.70
2019-01-30T03:49:51.048Z,82.10
2019-01-30T03:50:55.047Z,82.00
2019-01-30T03:51:59.153Z,82.40
2019-01-30T03:53:03.099Z,82.10
2019-01-30T03:54:07.031Z,82.70
2019-01-30T03:55:12.305Z,82.10
2019-01-30T03:56:16.373Z,82.40
2019-01-30T03:57:20.528Z,82.20
2019-01-30T03:58:24.535Z,82.60
2019-01-30T03:59:28.320Z,82.40
2019-01-30T04:00:32.313Z,81.10
2019-01-30T04:01:36.344Z,81.70
2019-01-30T04:02:40.290Z,81.40
2019-01-30T04:03:44.263Z,81.50
2019-01-30T04:04:48.238Z,81.00
2019-01-30T04:05:52.155Z,81.10
2019-01-30T04:06:56.240Z,82.20
2019-01-30T04:08:00.255Z,84.20
2019-01-30T04:09:05.886Z,82.60
2019-01-30T04:10:12.180Z,81.20
2019-01-30T04:11:16.191Z,81.00
2019-01-30T04:12:20.139Z,81.70
2019-01-30T04:13:24.251Z,82.60
2019-01-30T04:14:28.548Z,81.50
2019-01-30T04:15:32.543Z,82.70
2019-01-30T04:16:36.447Z,83.70
2019-01-30T04:17:40.349Z,82.00
2019-01-30T04:18:45.027Z,81.10
2019-01-30T04:19:49.032Z,82.50
2019-01-30T04:20:53.151Z,83.30
2019-01-30T04:21:57.081Z,81.40
2019-01-30T04:23:01.091Z,80.80
2019-01-30T04:24:05.029Z,82.40
2019-01-30T04:25:09.653Z,81.70
2019-01-30T04:26:13.647Z,82.70
2019-01-30T04:27:17.520Z,82.70
2019-01-30T04:28:21.425Z,82.80
2019-01-30T04:29:25.558Z,82.10
2019-01-30T04:30:29.682Z,81.70
2019-01-30T04:31:38.145Z,79.70
2019-01-30T04:32:39.406Z,79.20
2019-01-30T04:33:43.670Z,79.50
2019-01-30T04:34:47.542Z,79.40
2019-01-30T04:35:51.583Z,79.20
2019-01-30T04:36:55.559Z,79.20
2019-01-30T04:37:59.435Z,79.20
2019-01-30T04:39:04.425Z,80.80
2019-01-30T04:40:10.698Z,81.20
2019-01-30T04:41:14.605Z,79.90
2019-01-30T04:42:18.713Z,81.20
2019-01-30T04:43:22.730Z,80.00
2019-01-30T04:44:26.603Z,78.60
2019-01-30T04:45:30.752Z,80.40
2019-01-30T04:46:34.867Z,81.10
2019-01-30T04:47:38.969Z,80.80
2019-01-30T04:48:42.920Z,80.70
2019-01-30T04:49:46.895Z,80.70
2019-01-30T04:50:50.911Z,79.20
2019-01-30T04:51:54.918Z,79.80
2019-01-30T04:52:58.921Z,79.60
2019-01-30T04:54:02.736Z,80.60
2019-01-30T04:55:07.002Z,80.40
2019-01-30T04:56:11.007Z,79.20
2019-01-30T04:57:14.923Z,79.20
2019-01-30T04:58:18.829Z,79.70
2019-01-30T04:59:22.965Z,80.70
2019-01-30T05:00:26.800Z,79.60
2019-01-30T05:01:31.087Z,79.70
2019-01-30T05:02:34.994Z,80.10
2019-01-30T05:03:39.089Z,80.00
2019-01-30T05:04:43.059Z,82.00
2019-01-30T05:05:46.886Z,80.80
2019-01-30T05:06:50.910Z,81.20
2019-01-30T05:07:54.971Z,80.70
2019-01-30T05:08:58.845Z,81.80
2019-01-30T05:10:02.965Z,80.80
2019-01-30T05:11:06.895Z,81.10
2019-01-30T05:12:10.903Z,80.80
2019-01-30T05:13:14.846Z,81.50
2019-01-30T05:14:18.972Z,83.10
2019-01-30T05:15:23.351Z,83.00
2019-01-30T05:16:27.276Z,80.80
2019-01-30T05:17:31.250Z,81.40
2019-01-30T05:18:35.258Z,79.90
2019-01-30T05:19:39.284Z,80.20
2019-01-30T05:20:43.372Z,81.70
2019-01-30T05:21:47.505Z,79.40
2019-01-30T05:22:51.514Z,79.20
2019-01-30T05:23:55.499Z,79.20
2019-01-30T05:24:59.617Z,79.20
2019-01-30T05:26:03.653Z,81.00
2019-01-30T05:27:07.564Z,79.30
2019-01-30T05:28:11.671Z,78.10
2019-01-30T05:29:15.801Z,80.40
2019-01-30T05:30:22.631Z,79.20
2019-01-30T05:31:26.771Z,78.40
2019-01-30T05:32:30.771Z,78.70
2019-01-30T05:33:34.775Z,79.10
2019-01-30T05:34:38.903Z,79.10
2019-01-30T05:35:43.173Z,78.40
2019-01-30T05:36:47.015Z,80.10
2019-01-30T05:37:51.527Z,79.20
2019-01-30T05:38:55.816Z,78.10
2019-01-30T05:39:59.821Z,78.20
2019-01-30T05:41:03.725Z,79.10
2019-01-30T05:42:07.766Z,78.40
2019-01-30T05:43:11.576Z,78.50
2019-01-30T05:44:15.694Z,76.80
2019-01-30T05:45:19.713Z,77.00
2019-01-30T05:46:23.677Z,78.60
2019-01-30T05:47:27.702Z,78.60
2019-01-30T05:48:31.707Z,79.50
2019-01-30T05:49:35.883Z,79.00
2019-01-30T05:50:39.959Z,79.00
2019-01-30T05:51:44.057Z,79.00
2019-01-30T05:52:48.045Z,78.90
2019-01-30T05:53:52.043Z,79.50
2019-01-30T05:54:55.967Z,79.40
2019-01-30T05:55:59.989Z,78.90
2019-01-30T05:57:04.038Z,78.80
2019-01-30T05:58:08.157Z,78.70
2019-01-30T05:59:12.155Z,77.90
2019-01-30T06:00:18.995Z,78.10
2019-01-30T06:01:22.999Z,78.80
2019-01-30T06:02:27.129Z,79.40
2019-01-30T06:03:31.056Z,79.50
2019-01-30T06:04:34.864Z,80.20
2019-01-30T06:05:38.862Z,80.80
2019-01-30T06:06:42.875Z,81.80
2019-01-30T06:07:47.147Z,80.90
2019-01-30T06:08:51.007Z,79.30
2019-01-30T06:09:55.138Z,79.80
2019-01-30T06:10:59.464Z,79.20
2019-01-30T06:12:03.481Z,79.20
2019-01-30T06:13:07.479Z,78.90
2019-01-30T06:14:11.459Z,78.40
2019-01-30T06:15:15.750Z,79.10
2019-01-30T06:16:19.731Z,79.40
2019-01-30T06:17:23.858Z,78.80
2019-01-30T06:18:27.837Z,77.30
2019-01-30T06:19:31.745Z,76.20
2019-01-30T06:20:35.661Z,77.50
2019-01-30T06:21:39.655Z,77.50
2019-01-30T06:22:43.622Z,77.10
2019-01-30T06:23:47.409Z,77.30
2019-01-30T06:24:51.428Z,76.70
2019-01-30T06:25:55.363Z,76.70
2019-01-30T06:26:59.488Z,77.80
2019-01-30T06:28:03.469Z,77.70
2019-01-30T06:29:07.450Z,77.10
2019-01-30T06:30:13.103Z,77.20
2019-01-30T06:31:17.099Z,78.30
2019-01-30T06:32:22.181Z,79.10
2019-01-30T06:33:26.416Z,79.00
2019-01-30T06:34:30.892Z,79.80
2019-01-30T06:35:35.095Z,79.40
2019-01-30T06:36:39.115Z,78.70
2019-01-30T06:37:43.279Z,78.20
2019-01-30T06:38:47.406Z,77.60
2019-01-30T06:39:51.447Z,78.60
2019-01-30T06:40:55.390Z,79.10
2019-01-30T06:41:59.366Z,79.20
2019-01-30T06:43:03.433Z,79.10
2019-01-30T06:44:07.372Z,77.30
2019-01-30T06:45:11.348Z,77.50
2019-01-30T06:46:15.329Z,77.10
2019-01-30T06:47:19.254Z,77.40
2019-01-30T06:48:23.397Z,78.50
2019-01-30T06:49:27.395Z,78.50
2019-01-30T06:50:31.389Z,77.50
2019-01-30T06:51:35.424Z,77.70
2019-01-30T06:52:39.419Z,76.70
2019-01-30T06:53:43.567Z,76.20
2019-01-30T06:54:47.908Z,78.00
2019-01-30T06:55:51.829Z,79.00
2019-01-30T06:56:55.610Z,78.10
2019-01-30T06:57:59.546Z,78.50
2019-01-30T06:59:03.607Z,79.20
2019-01-30T07:00:14.452Z,79.20
2019-01-30T07:01:18.476Z,78.80
2019-01-30T07:02:31.811Z,78.20
2019-01-30T07:03:28.165Z,78.40
2019-01-30T07:04:32.306Z,77.40
2019-01-30T07:05:36.178Z,77.20
2019-01-30T07:06:40.296Z,76.70
2019-01-30T07:07:44.263Z,77.10
2019-01-30T07:08:48.366Z,77.00
2019-01-30T07:09:52.369Z,77.40
2019-01-30T07:10:56.385Z,77.00
2019-01-30T07:12:00.291Z,78.10
2019-01-30T07:13:04.301Z,79.00
2019-01-30T07:14:08.215Z,78.40
2019-01-30T07:15:12.131Z,78.80
2019-01-30T07:16:16.511Z,77.50
2019-01-30T07:17:20.569Z,78.90
2019-01-30T07:18:24.563Z,78.50
2019-01-30T07:19:28.475Z,79.60
2019-01-30T07:20:32.635Z,79.60
2019-01-30T07:21:36.704Z,79.80
2019-01-30T07:22:40.860Z,80.40
2019-01-30T07:23:44.791Z,80.10
2019-01-30T07:24:48.583Z,79.00
2019-01-30T07:25:52.526Z,78.00
2019-01-30T07:26:56.524Z,79.70
2019-01-30T07:28:01.169Z,79.10
2019-01-30T07:29:05.173Z,80.70
2019-01-30T07:30:13.517Z,81.00
2019-01-30T07:31:19.302Z,81.50
2019-01-30T07:32:23.378Z,80.70
2019-01-30T07:33:27.803Z,80.40
2019-01-30T07:34:31.806Z,80.10
2019-01-30T07:35:35.824Z,79.90
2019-01-30T07:36:39.908Z,80.90
2019-01-30T07:37:43.971Z,82.20
2019-01-30T07:38:47.881Z,82.00
2019-01-30T07:39:51.777Z,80.80
2019-01-30T07:40:55.644Z,81.00
2019-01-30T07:41:59.753Z,81.90
2019-01-30T07:43:03.759Z,83.10
2019-01-30T07:44:07.783Z,82.90
2019-01-30T07:45:13.121Z,82.50
2019-01-30T07:46:17.266Z,83.50
2019-01-30T07:47:21.200Z,84.40
2019-01-30T07:48:28.572Z,83.60
2019-01-30T07:49:31.187Z,83.20
2019-01-30T07:50:35.141Z,84.50
2019-01-30T07:51:39.042Z,85.70
2019-01-30T07:52:43.080Z,84.20
2019-01-30T07:53:47.070Z,83.20
2019-01-30T07:54:51.077Z,83.20
2019-01-30T07:55:55.095Z,83.50
2019-01-30T07:56:58.878Z,82.30
2019-01-30T07:58:03.039Z,82.40
2019-01-30T07:59:07.074Z,82.90
2019-01-30T08:00:17.853Z,83.30
2019-01-30T08:01:22.295Z,84.20
2019-01-30T08:02:26.657Z,84.90
2019-01-30T08:03:30.688Z,85.20
2019-01-30T08:04:34.965Z,84.20
2019-01-30T08:05:38.982Z,85.00
2019-01-30T08:06:43.007Z,85.50
2019-01-30T08:07:47.010Z,85.70
2019-01-30T08:08:51.058Z,86.90
2019-01-30T08:09:55.057Z,85.80
2019-01-30T08:10:59.153Z,85.80
2019-01-30T08:12:03.305Z,86.40
2019-01-30T08:13:07.396Z,85.70
2019-01-30T08:14:11.530Z,85.60
2019-01-30T08:15:16.819Z,86.10
2019-01-30T08:16:21.844Z,85.80
2019-01-30T08:17:25.902Z,86.70
2019-01-30T08:18:29.935Z,85.90
2019-01-30T08:19:34.064Z,85.90
2019-01-30T08:20:38.215Z,86.50
2019-01-30T08:21:42.314Z,85.70
2019-01-30T08:22:46.307Z,85.80
2019-01-30T08:23:50.668Z,85.00
2019-01-30T08:24:55.171Z,85.70
2019-01-30T08:25:59.564Z,84.50
2019-01-30T08:27:03.925Z,85.10
2019-01-30T08:28:08.446Z,86.40
2019-01-30T08:29:12.710Z,87.70
2019-01-30T08:30:24.867Z,86.50
2019-01-30T08:31:29.064Z,86.10
2019-01-30T08:32:33.188Z,88.00
2019-01-30T08:33:37.419Z,88.20
2019-01-30T08:34:41.338Z,87.70
2019-01-30T08:35:45.490Z,87.60
2019-01-30T08:36:49.400Z,88.20
2019-01-30T08:37:53.443Z,89.30
2019-01-30T08:38:57.543Z,89.20
2019-01-30T08:40:01.621Z,89.80
2019-01-30T08:41:05.774Z,89.10
2019-01-30T08:42:09.868Z,88.80
2019-01-30T08:43:13.875Z,87.70
2019-01-30T08:44:17.973Z,86.00
2019-01-30T08:45:26.830Z,87.80
2019-01-30T08:46:30.848Z,88.80
2019-01-30T08:47:34.786Z,89.00
2019-01-30T08:48:38.613Z,88.10
2019-01-30T08:49:42.531Z,87.00
2019-01-30T08:50:46.566Z,84.90
2019-01-30T08:51:50.581Z,85.70
2019-01-30T08:52:54.716Z,86.20
2019-01-30T08:53:58.733Z,86.80
2019-01-30T08:55:02.813Z,86.80
2019-01-30T08:56:06.758Z,85.70
2019-01-30T08:57:10.903Z,86.40
2019-01-30T08:58:14.907Z,87.40
2019-01-30T08:59:18.984Z,88.30
2019-01-30T09:00:23.631Z,87.40
2019-01-30T09:01:27.687Z,85.40
2019-01-30T09:02:31.881Z,85.60
2019-01-30T09:03:35.787Z,86.70
2019-01-30T09:04:39.753Z,87.80
2019-01-30T09:05:43.782Z,88.80
2019-01-30T09:06:47.759Z,89.80
2019-01-30T09:07:51.877Z,87.90
2019-01-30T09:08:55.970Z,88.60
2019-01-30T09:09:59.952Z,87.60
2019-01-30T09:11:03.861Z,86.90
2019-01-30T09:12:08.178Z,85.80
2019-01-30T09:13:12.003Z,85.00
2019-01-30T09:14:15.907Z,86.00
2019-01-30T09:15:21.615Z,86.90
2019-01-30T09:16:25.515Z,86.90
2019-01-30T09:17:29.413Z,85.10
2019-01-30T09:18:33.572Z,86.10
2019-01-30T09:19:37.499Z,84.80
2019-01-30T09:20:41.519Z,85.10
2019-01-30T09:21:45.439Z,85.70
2019-01-30T09:22:49.323Z,84.40
2019-01-30T09:23:53.192Z,85.70
2019-01-30T09:24:57.206Z,84.70
2019-01-30T09:26:01.212Z,84.60
2019-01-30T09:27:05.299Z,84.80
2019-01-30T09:28:09.313Z,84.20
2019-01-30T09:29:13.211Z,85.10
2019-01-30T09:30:22.253Z,85.90
2019-01-30T09:31:26.209Z,84.90
2019-01-30T09:32:30.109Z,84.40
2019-01-30T09:33:34.184Z,84.70
2019-01-30T09:34:38.099Z,83.30
2019-01-30T09:35:42.167Z,85.50
2019-01-30T09:36:46.371Z,84.30
2019-01-30T09:37:50.451Z,85.40
2019-01-30T09:38:54.472Z,85.50
2019-01-30T09:39:58.498Z,86.20
2019-01-30T09:41:02.567Z,86.90
2019-01-30T09:42:06.571Z,85.60
2019-01-30T09:43:10.601Z,84.30
2019-01-30T09:44:14.619Z,82.70
2019-01-30T09:45:18.576Z,85.00
2019-01-30T09:46:22.700Z,84.20
2019-01-30T09:47:26.721Z,84.70
2019-01-30T09:48:30.590Z,81.20
2019-01-30T09:49:34.743Z,81.90
2019-01-30T09:50:38.654Z,84.30
2019-01-30T09:51:42.658Z,85.80
2019-01-30T09:52:46.847Z,84.80
2019-01-30T09:53:50.774Z,83.00
2019-01-30T09:54:57.035Z,82.70
2019-01-30T09:56:01.173Z,81.70
2019-01-30T09:57:05.198Z,82.70
2019-01-30T09:58:09.183Z,81.90
2019-01-30T09:59:13.198Z,81.30
2019-01-30T10:00:28.576Z,83.70
2019-01-30T10:01:32.472Z,84.40
2019-01-30T10:02:36.463Z,84.10
2019-01-30T10:03:40.583Z,84.40
2019-01-30T10:04:44.577Z,84.20
2019-01-30T10:05:48.678Z,84.10
2019-01-30T10:06:52.591Z,85.50
2019-01-30T10:07:56.586Z,84.20
2019-01-30T10:09:00.570Z,84.60
2019-01-30T10:10:06.590Z,83.00
2019-01-30T10:11:10.913Z,84.50
2019-01-30T10:12:15.152Z,86.50
2019-01-30T10:13:19.115Z,87.50
2019-01-30T10:14:23.199Z,85.20
2019-01-30T10:15:30.015Z,83.80
2019-01-30T10:16:34.155Z,82.20
2019-01-30T10:17:38.205Z,84.50
2019-01-30T10:18:42.238Z,84.00
2019-01-30T10:19:46.235Z,83.60
2019-01-30T10:20:50.091Z,84.60
2019-01-30T10:21:55.844Z,86.50
2019-01-30T10:22:59.721Z,85.40
2019-01-30T10:24:03.613Z,86.20
2019-01-30T10:25:08.229Z,87.30
2019-01-30T10:26:12.257Z,84.40
2019-01-30T10:27:16.265Z,84.80
2019-01-30T10:28:20.271Z,84.90
2019-01-30T10:29:24.340Z,85.30
2019-01-30T10:30:30.460Z,84.50
2019-01-30T10:31:34.541Z,85.40
2019-01-30T10:32:38.627Z,85.40
2019-01-30T10:33:46.558Z,86.40
2019-01-30T10:34:48.287Z,87.20
2019-01-30T10:35:52.407Z,85.70
2019-01-30T10:36:56.395Z,84.50
2019-01-30T10:38:00.493Z,86.00
2019-01-30T10:39:06.538Z,86.10
2019-01-30T10:40:13.094Z,87.50
2019-01-30T10:41:17.107Z,87.80
2019-01-30T10:42:21.047Z,87.10
2019-01-30T10:43:25.147Z,87.00
2019-01-30T10:44:29.131Z,87.80
2019-01-30T10:45:33.152Z,89.20
2019-01-30T10:46:37.062Z,88.10
2019-01-30T10:47:41.099Z,87.70
2019-01-30T10:48:44.882Z,86.00
2019-01-30T10:49:48.758Z,86.60
2019-01-30T10:50:52.766Z,85.00
2019-01-30T10:51:56.576Z,84.50
2019-01-30T10:53:00.653Z,84.20
2019-01-30T10:54:04.797Z,84.70
2019-01-30T10:55:11.463Z,84.30
2019-01-30T10:56:16.609Z,85.20
2019-01-30T10:57:20.747Z,85.20
2019-01-30T10:58:24.756Z,85.80
2019-01-30T10:59:28.813Z,86.50
2019-01-30T11:00:38.767Z,86.40
2019-01-30T11:01:42.847Z,86.50
2019-01-30T11:02:46.861Z,87.80
2019-01-30T11:03:57.056Z,86.10
2019-01-30T11:04:56.636Z,87.80
2019-01-30T11:06:00.419Z,87.00
2019-01-30T11:07:04.543Z,85.80
2019-01-30T11:08:08.600Z,84.50
2019-01-30T11:09:12.780Z,86.40
2019-01-30T11:10:17.745Z,85.30
2019-01-30T11:11:21.661Z,86.50
2019-01-30T11:12:25.708Z,85.00
2019-01-30T11:13:29.623Z,85.10
2019-01-30T11:14:33.621Z,85.10
2019-01-30T11:15:37.632Z,84.40
2019-01-30T11:16:41.615Z,86.20
2019-01-30T11:17:45.530Z,86.70
2019-01-30T11:18:49.711Z,85.80
2019-01-30T11:19:53.622Z,85.70
2019-01-30T11:20:57.555Z,85.70
2019-01-30T11:22:01.659Z,86.90
2019-01-30T11:23:06.119Z,85.60
2019-01-30T11:24:10.143Z,85.70
2019-01-30T11:25:23.070Z,86.50
2019-01-30T11:26:27.058Z,87.00
2019-01-30T11:27:31.141Z,85.90
2019-01-30T11:28:35.177Z,86.70
2019-01-30T11:29:39.308Z,86.00
2019-01-30T11:30:43.099Z,86.20
2019-01-30T11:31:47.095Z,87.00
2019-01-30T11:32:51.171Z,87.80
2019-01-30T11:33:55.169Z,85.40
2019-01-30T11:34:59.191Z,86.60
2019-01-30T11:36:03.165Z,90.00
2019-01-30T11:37:07.053Z,90.50
2019-01-30T11:38:11.100Z,90.80
2019-01-30T11:39:15.067Z,86.80
2019-01-30T11:40:19.857Z,88.40
2019-01-30T11:41:23.779Z,86.40
2019-01-30T11:42:27.776Z,88.60
2019-01-30T11:43:31.667Z,88.40
2019-01-30T11:44:36.041Z,89.60
2019-01-30T11:45:42.024Z,89.60
2019-01-30T11:46:45.981Z,90.40
2019-01-30T11:47:50.140Z,90.60
2019-01-30T11:48:56.392Z,90.20
2019-01-30T11:49:59.906Z,89.90
2019-01-30T11:51:03.813Z,90.00
2019-01-30T11:52:07.842Z,89.50
2019-01-30T11:53:12.169Z,89.20
2019-01-30T11:54:16.303Z,86.90
2019-01-30T11:55:20.415Z,86.00
2019-01-30T11:56:24.792Z,85.80
2019-01-30T11:57:28.796Z,86.80
2019-01-30T11:58:32.692Z,88.00
2019-01-30T11:59:37.053Z,88.00
2019-01-30T12:00:56.814Z,88.10
2019-01-30T12:02:00.930Z,88.50
2019-01-30T12:03:04.924Z,89.70
2019-01-30T12:04:17.702Z,85.90
2019-01-30T12:05:15.871Z,86.10
2019-01-30T12:06:19.786Z,88.00
2019-01-30T12:07:23.997Z,88.70
2019-01-30T12:08:27.896Z,86.50
2019-01-30T12:09:31.932Z,87.70
2019-01-30T12:10:35.837Z,88.50
2019-01-30T12:11:39.762Z,88.00
2019-01-30T12:12:43.675Z,88.00
2019-01-30T12:13:47.569Z,89.20
2019-01-30T12:14:51.574Z,90.10
2019-01-30T12:15:55.662Z,89.70
2019-01-30T12:16:59.443Z,89.60
2019-01-30T12:18:03.399Z,89.10
2019-01-30T12:19:07.798Z,87.10
2019-01-30T12:20:12.165Z,87.60
2019-01-30T12:21:16.333Z,86.70
2019-01-30T12:22:20.351Z,87.50
2019-01-30T12:23:24.447Z,87.80
2019-01-30T12:24:28.470Z,90.30
2019-01-30T12:25:32.538Z,90.60
2019-01-30T12:26:36.635Z,90.10
2019-01-30T12:27:40.831Z,90.80
2019-01-30T12:28:45.023Z,89.90
2019-01-30T12:29:49.047Z,90.00
2019-01-30T12:30:52.837Z,90.30
2019-01-30T12:31:57.048Z,90.40
2019-01-30T12:33:01.188Z,90.10
2019-01-30T12:34:05.537Z,90.10
2019-01-30T12:35:09.575Z,87.60
2019-01-30T12:36:13.473Z,86.30
2019-01-30T12:37:17.619Z,88.40
2019-01-30T12:38:21.725Z,88.80
2019-01-30T12:39:25.773Z,89.80
2019-01-30T12:40:29.829Z,88.90
2019-01-30T12:41:35.749Z,89.00
2019-01-30T12:42:39.617Z,90.40
2019-01-30T12:43:45.329Z,90.70
2019-01-30T12:44:49.723Z,90.10
2019-01-30T12:45:53.839Z,90.60
2019-01-30T12:46:57.950Z,91.20
2019-01-30T12:48:01.873Z,90.10
2019-01-30T12:49:05.895Z,90.10
2019-01-30T12:50:10.012Z,90.50
2019-01-30T12:51:13.897Z,89.20
2019-01-30T12:52:18.168Z,88.20
2019-01-30T12:53:22.287Z,87.30
2019-01-30T12:54:26.406Z,87.40
2019-01-30T12:55:30.449Z,89.20
2019-01-30T12:56:34.483Z,89.90
2019-01-30T12:57:38.838Z,89.20
2019-01-30T12:58:42.963Z,89.00
2019-01-30T12:59:47.147Z,90.20
2019-01-30T13:00:51.061Z,90.10
2019-01-30T13:01:55.123Z,90.40
2019-01-30T13:02:59.188Z,90.00
2019-01-30T13:04:03.223Z,90.10
2019-01-30T13:05:07.751Z,87.60
2019-01-30T13:06:11.889Z,88.40
2019-01-30T13:07:15.984Z,89.80
2019-01-30T13:08:19.991Z,88.00
2019-01-30T13:09:23.931Z,89.40
2019-01-30T13:10:28.033Z,90.60
2019-01-30T13:11:32.038Z,89.30
2019-01-30T13:12:36.083Z,89.80
2019-01-30T13:13:40.471Z,88.50
2019-01-30T13:14:44.446Z,88.90
2019-01-30T13:15:48.425Z,87.30
2019-01-30T13:16:52.383Z,87.10
2019-01-30T13:17:56.470Z,88.90
2019-01-30T13:19:00.476Z,91.20
2019-01-30T13:20:05.322Z,91.30
2019-01-30T13:21:09.237Z,91.60
2019-01-30T13:22:13.494Z,88.00
2019-01-30T13:23:17.473Z,88.30
2019-01-30T13:24:21.482Z,87.40
2019-01-30T13:25:30.207Z,88.00
2019-01-30T13:26:34.337Z,87.80
2019-01-30T13:27:38.419Z,87.00
2019-01-30T13:28:42.493Z,88.50
2019-01-30T13:29:46.491Z,89.40
2019-01-30T13:30:51.063Z,88.50
2019-01-30T13:31:55.218Z,89.80
2019-01-30T13:32:59.283Z,89.60
2019-01-30T13:34:03.663Z,90.00
2019-01-30T13:35:07.787Z,90.00
2019-01-30T13:36:11.911Z,89.60
2019-01-30T13:37:15.957Z,88.80
2019-01-30T13:38:19.844Z,88.70
2019-01-30T13:39:23.855Z,87.20
2019-01-30T13:40:30.206Z,88.60
2019-01-30T13:41:34.201Z,88.10
2019-01-30T13:42:38.365Z,88.60
2019-01-30T13:43:42.383Z,87.20
2019-01-30T13:44:46.397Z,86.90
2019-01-30T13:45:50.251Z,86.80
2019-01-30T13:46:54.284Z,88.60
2019-01-30T13:47:58.398Z,88.30